Flight Track Log - Related Links

Times and Time Zones

All times are in EDT time to prevent confusion due to time zone crossing. See the N244A flight status page for this flight to view local times or setup timezone preferences in your user account.

Time Position Orientation Groundspeed Altitude Reporting Facility
EDT Latitude Longitude Course Direction KTS MPH feet Rate Location/Type
Sun 07:31:34 PM 33.8333 -84.2667 76° East 228 262 2,900  Level Atlanta TRACON
Sun 07:32:34 PM 33.8500 -84.1833 76° East 275 316 5,000 1,105 Climbing Atlanta TRACON
Sun 07:33:28 PM 33.8667 -84.0833 79° East 310 357 5,000 761 Level Atlanta TRACON
Sun 07:34:56 PM 33.8778 -83.9611 84° East 309 356 6,800 1,176 Climbing Atlanta Center
Sun 07:35:56 PM 33.8900 -83.8536 82° East 303 349 7,900 2,000 Climbing Atlanta Center
Sun 07:36:56 PM 33.9108 -83.7483 77° East 314 361 10,800 2,400 Climbing Atlanta Center
Sun 07:37:56 PM 33.9689 -83.6506 54° Northeast 322 371 12,700 2,100 Climbing Atlanta Center
Sun 07:38:56 PM 34.0333 -83.5500 52° Northeast 349 402 15,000 2,250 Climbing Atlanta Center
Sun 07:39:56 PM 34.0933 -83.4517 54° Northeast 366 421 17,200 1,750 Climbing Atlanta Center
Sun 07:40:56 PM 34.1639 -83.3458 51° Northeast 378 435 18,500 1,550 Climbing Atlanta Center
Sun 07:41:56 PM 34.2300 -83.2372 54° Northeast 388 447 20,300 1,900 Climbing Atlanta Center
Sun 07:42:56 PM 34.2981 -83.1261 53° Northeast 402 463 22,300 1,550 Climbing Atlanta Center
Sun 07:43:56 PM 34.3658 -83.0094 55° Northeast 414 476 23,400 1,050 Climbing Atlanta Center
Sun 07:44:56 PM 34.4400 -82.8928 52° Northeast 424 488 24,400 1,000 Climbing Atlanta Center
Sun 07:45:56 PM 34.5183 -82.7783 50° Northeast 431 496 25,400 950 Climbing Atlanta Center
Sun 07:46:56 PM 34.5878 -82.6561 55° Northeast 437 503 26,300 950 Climbing Atlanta Center
Sun 07:47:56 PM 34.6697 -82.5258 53° Northeast 437 503 27,300 950 Climbing Atlanta Center
Sun 07:48:56 PM 34.7475 -82.4031 52° Northeast 442 509 28,200 850 Climbing Atlanta Center
Sun 07:49:56 PM 34.8211 -82.2803 54° Northeast 442 509 29,000 700 Climbing Atlanta Center
Sun 07:50:56 PM 34.8964 -82.1522 54° Northeast 447 514 29,600 650 Climbing Atlanta Center
Sun 07:51:56 PM 34.9717 -82.0311 53° Northeast 452 520 30,300 700 Climbing Atlanta Center
Sun 07:52:56 PM 35.0467 -81.9050 54° Northeast 452 520 31,000 700 Climbing Atlanta Center
Sun 07:53:56 PM 35.1172 -81.7739 57° Northeast 457 526 31,700 650 Climbing Atlanta Center
Sun 07:54:56 PM 35.1858 -81.6397 58° Northeast 457 526 32,300 650 Climbing Atlanta Center
Sun 07:55:56 PM 35.2581 -81.5081 56° Northeast 457 526 33,000 600 Climbing Atlanta Center
Sun 07:56:56 PM 35.3264 -81.3736 58° Northeast 463 533 33,500 600 Climbing Atlanta Center
Sun 07:57:56 PM 35.3922 -81.2389 59° Northeast 463 533 34,200 700 Climbing Atlanta Center
Sun 07:58:56 PM 35.4600 -81.1039 58° Northeast 463 533 34,900 400 Climbing Atlanta Center
Sun 07:59:56 PM 35.5278 -80.9792 56° Northeast 468 539 35,000 50 Climbing Atlanta Center
Sun 08:00:56 PM 35.5994 -80.8436 57° Northeast 468 539 35,000  Level Atlanta Center
Sun 08:01:56 PM 35.6731 -80.7053 57° Northeast 474 545 35,000  Level Atlanta Center
Sun 08:02:56 PM 35.7464 -80.5642 57° Northeast 479 551 35,000  Level Atlanta Center
Sun 08:04:42 PM 35.8900 -80.3253 53° Northeast 491 565 35,000  Level Washington Center
Sun 08:05:43 PM 35.9844 -80.2036 46° Northeast 491 565 35,000  Level Washington Center
Sun 08:06:44 PM 36.0619 -80.0792 52° Northeast 487 560 35,000  Level Washington Center
Sun 08:07:47 PM 36.1556 -79.9119 55° Northeast 491 565 35,000  Level Washington Center
Sun 08:08:47 PM 36.2319 -79.7692 56° Northeast 493 567 35,000  Level Washington Center
Sun 08:09:48 PM 36.3067 -79.6281 57° Northeast 492 566 35,000  Level Washington Center
Sun 08:10:52 PM 36.3828 -79.4867 56° Northeast 492 566 35,000  Level Washington Center
Sun 08:11:52 PM 36.4658 -79.3278 57° Northeast 491 565 35,000 -496 Level Washington Center
Sun 08:12:53 PM 36.5414 -79.1864 56° Northeast 491 565 34,000 -661 Descending Washington Center
Sun 08:13:59 PM 36.6111 -79.0564 56° Northeast 499 574 33,600 -1,548 Descending Washington Center
Sun 08:14:57 PM 36.6967 -78.8881 58° Northeast 521 600 30,800 -2,262 Descending Washington Center
Sun 08:16:01 PM 36.7767 -78.7381 56° Northeast 525 604 29,000 -878 Descending Washington Center
Sun 08:17:00 PM 36.8319 -78.5872 65° Northeast 481 554 29,000  Level Washington Center
Sun 08:18:04 PM 36.8672 -78.4281 74° East 442 509 29,000  Level Washington Center
Sun 08:19:06 PM 36.8975 -78.2903 75° East 424 488 29,000  Level Washington Center
Sun 08:20:06 PM 36.9253 -78.1531 76° East 412 474 29,000  Level Washington Center
Sun 08:21:10 PM 36.9486 -77.9839 80° East 414 476 29,000 -435 Level Washington Center
Sun 08:22:10 PM 36.9567 -77.8347 86° East 432 497 28,100 -496 Descending Washington Center
Sun 08:23:11 PM 37.0300 -77.7233 50° Northeast 419 482 28,000 -97 Descending Washington Center
Sun 08:24:14 PM 37.1225 -77.6406 36° Northeast 411 473 27,900 -976 Descending Washington Center
Sun 08:25:14 PM 37.2269 -77.5728 27° Northeast 423 487 26,000 -1,403 Descending Washington Center
Sun 08:26:18 PM 37.3419 -77.5956 351° North 422 486 25,000 -1,306 Descending Washington Center
Sun 08:27:18 PM 37.4525 -77.6208 350° North 410 472 23,300 -976 Descending Washington Center
Sun 08:28:21 PM 37.5794 -77.6386 354° North 383 441 23,000 -145 Descending Washington Center
Sun 08:29:22 PM 37.6781 -77.6394 360° North 363 418 23,000  Level Washington Center
Sun 08:30:24 PM 37.7778 -77.6036 16° North 370 426 23,000  Level Washington Center
Sun 08:31:25 PM 37.8617 -77.5089 42° Northeast 397 457 23,000 -387 Level Washington Center
Sun 08:32:28 PM 37.9469 -77.4194 40° Northeast 402 463 22,200 -823 Descending Washington Center
Sun 08:33:29 PM 38.0150 -77.3114 51° Northeast 404 465 21,300 -927 Descending Washington Center
Sun 08:34:31 PM 38.0469 -77.1625 75° East 399 459 20,300 -1,475 Descending Washington Center
Sun 08:35:31 PM 38.1497 -77.1083 23° Northeast 384 442 18,300 -1,694 Descending Washington Center
Sun 08:36:35 PM 38.2458 -77.1217 354° North 355 409 16,800 -1,536 Descending Washington Center
Sun 08:37:36 PM 38.3303 -77.1344 353° North 337 388 15,100 -1,736 Descending Washington Center
Sun 08:38:36 PM 38.4197 -77.1253 North 330 380 13,300 -2,032 Descending Washington Center
Sun 08:39:40 PM 38.5214 -77.0750 21° North 349 402 10,900 -1,104 Descending Washington Center
Sun 08:40:41 PM 38.5494 -76.9661 72° East 331 381 11,000 -344 Climbing Washington Center
Sun 08:41:42 PM 38.5467 -76.8531 92° East 325 374 10,200 -1,122 Descending Washington Center
Sun 08:42:44 PM 38.5375 -76.7342 96° East 343 395 8,700 -1,475 Descending Washington Center
Sun 08:43:44 PM 38.6125 -76.6844 27° Northeast 325 374 7,200 -1,317 Descending Washington Center
Sun 08:44:47 PM 38.6906 -76.6583 15° North 302 348 6,000 -576 Descending Washington Center
Sun 08:45:49 PM 38.7514 -76.5908 41° Northeast 295 339 6,000  Level Washington Center
Sun 08:46:49 PM 38.8278 -76.5267 33° Northeast 296 341 6,000 -579 Level Washington Center
Sun 08:47:43 PM 38.9000 -76.5333 356° North 285 328 4,900 -1,053 Descending Potomac TRACON
Sun 08:48:43 PM 38.9667 -76.5333 360° North 255 293 4,000 -474 Descending Potomac TRACON
Sun 08:49:37 PM 39.0167 -76.4833 38° Northeast 210 242 4,000  Level Potomac TRACON
Sun 08:50:37 PM 39.0667 -76.4333 38° Northeast 213 245 4,000  Level Potomac TRACON
Sun 08:51:43 PM 39.0833 -76.3667 72° East 199 229 4,000  Level Potomac TRACON
Sun 08:52:37 PM 39.0667 -76.3000 108° East 200 230 4,000  Level Potomac TRACON
Sun 08:54:02 PM 39.0622 -76.2181 94° East 201 231 4,000 -247 Level Washington Center
Sun 08:55:03 PM 39.0861 -76.1519 65° Northeast 210 242 3,400 -492 Descending Washington Center
Sun 08:56:04 PM 39.1386 -76.1739 342° North 204 235 3,000 -393 Descending Washington Center
Sun 08:57:05 PM 39.1500 -76.2242 286° West 177 204 2,600 -488 Descending Washington Center
Sun 08:58:07 PM 39.1494 -76.2789 269° West 162 186 2,000 -290 Descending Washington Center
Sun 08:59:09 PM 39.1533 -76.3325 275° West 154 177 2,000  Level Washington Center
Sun 09:00:11 PM 39.1567 -76.3808 275° West 143 165 2,000 -146 Level Washington Center
Sun 09:01:12 PM 39.1589 -76.4258 274° West 133 153 1,700 -248 Descending Washington Center
Sun 09:02:12 PM 39.1619 -76.4739 275° West 132 152 1,500 -98 Descending Washington Center
Sun 09:03:14 PM 39.1644 -76.5272 273° West 139 160 1,500 -146 Level Washington Center
Sun 09:04:15 PM 39.1692 -76.5842 276° West 139 160 1,200 -439 Descending Washington Center
Sun 09:05:17 PM 39.1711 -76.6275 273° West 129 148 600 -393 Descending Washington Center
Sun 09:06:17 PM 39.1739 -76.6722 275° West 129 148 400 -200 Descending Washington Center

Login

Don't have an account? Register now (free) for customized features, flight alerts, and more!